Terminal Aerodrome Forecast
Issued by NWS

Home | Current Version | Previous Version | Text Only | Print | Product List | Glossary On
Versions: 1 2 3 4 5 6 7 8 9 10 11 12 13 14 15 16 17 18 19
000
FTUS46 KPDT 120919 AAC
TAFALW
TAF AMD
KALW 120919Z 1209/1306 VRB05KT 1/2SM FG BKN002
      TEMPO 1209/1213 1/4SM FG VV001
     FM121800 VRB05KT 6SM BR BKN080
     FM122100 22008KT P6SM -SHRA OVC050=

USA.gov is the U.S. government's official web portal to all federal, state and local government web resources and services.